Tofte, Minnesota
Current Conditions -  °F | °C
As of 3:34 AM on Saturday 20 Dec 2014 (Local Time) from KCKC Reporting Station
Haze Haze  
Wind Chill: 23°   Ceiling: 200
Heat Index: 23°   Visibility: 3mi
Dew Point: 19°   Wind: 0mph
Humidity: 86%   Direction: NA
Pressure: 30.12"   Gusts: NA
Location:  47.57°N, 90.84°W
Report Text: KCKC 200934Z AUTO 00000KT 3SM BR OVC002 M05/M07 A3012 RMK AO2
Loading
Personal Weather Stations






























Interactive Weather Map New forecast layout! Learn more

10-Day Weather Forecast

Advertisements
Track Severe Weather on mobile